Brewster, WA

2:36 PM PDT on September 23, 2014 (GMT -0700)
OKANOGAN / MALOTT | Change Station
CLOSE
Current Station
Personal Weather Station
Location: Okanogan, WA
Elevation: 910 ft
Nearby Weather Stations

Elev 910 ft 48.26 °N, 119.73 °W | Updated 7 seconds ago

Overcast
Overcast
69.1 °F
Feels Like 69.1 °F
N
0.0
Wind Variable Wind from ESE
Gusts 0.0 mph

Today
High -- | Low -- °F
--% Chance of Precip.
Yesterday
High -- | Low -- °F
Precip. -- in
6:47 AM 6:54 PM
Waning Crescent, 0% visible
Pressure 29.87 in
Visibility 10.0 miles
Clouds Overcast 9000 ft
Dew Point 56 °F
Humidity 63%
Rainfall 0.00 in
Snow Depth 0 in , 0 in , 0 in
UV 2 out of 12
Pollen 6.10 out of 12
Air Quality Not available.
Flu Activity Not available.
METAR KOMK 232053Z AUTO 15008KT 10SM -RA OVC090 22/13 A2988 RMK AO2 RAB42 SLP114 P0000 6//// T02170128 55000

More Conditions Fewer Conditions

Pressure 29.87 in
Visibility 10.0 miles
Clouds Overcast 9000 ft
Dew Point 56 °F
Humidity 63%
Rainfall 0.00 in
Snow Depth 0 in , 0 in , 0 in
UV 2 out of 12
Pollen 6.10 out of 12
Air Quality Not available.
Flu Activity Not available.
METAR KOMK 232053Z AUTO 15008KT 10SM -RA OVC090 22/13 A2988 RMK AO2 RAB42 SLP114 P0000 6//// T02170128 55000

More Conditions Fewer Conditions

10-Day Weather Forecast

Almanac

Astronomy

Sep. 23, 2014 Rise Set
Actual Time 6:47 AM PDT 6:54 PM PDT
Civil Twilight 6:16 AM PDT 7:25 PM PDT
Nautical Twilight 5:39 AM PDT 8:02 PM PDT
Astronomical Twilight 5:01 AM PDT 8:39 PM PDT
Moon 6:15 AM PDT 6:34 PM PDT
Length of Visible Light 13h 09m
Length of Day
12h 07m
Tomorrow will be 3m 28s shorter.
Waning Crescent, 0% of the Moon is Illuminated
Today
Waning Crescent
Sep 24
New
Oct 1
First Quarter
Oct 8
Full
Oct 15
Last Quarter

Today's Extremes

State Highs State Lows

Community

WunderPhotos

Upload Photos

1,755,794 photos uploaded!

WunderBlogs® & News

By Dr. Jeff Masters
Director of Meteorology, Weather Underground
By Kari Strenfel
Meteorologist, Weather Underground
By Christopher C. Burt
Weather Historian, Weather Underground
September 23, 2014
September 23, 2014
September 23, 2014

Nearby

Snow Depth

Station Depth Elevation
Rainy Pass 0 in 4780 ft
Sentinel Butte 0 in 4920 ft
Mount Gardner 0 in 3000 ft
Swift Creek 0 in 3770 ft
Lone Pine 0 in 3800 ft

Earthquake Activity

City Distance Mag. Time & Date
No recent earthquake activity has been reported nearby.
Minimum magnitude displayed is 2.5.

Coastal Water Temperatures

Place Temperature
No Stations Reporting

Nearby Weather Stations